createdAt,value
2022-12-06T00:01:35.267Z,83.00
2022-12-06T00:04:08.517Z,77.50
2022-12-06T00:06:44.277Z,78.10
2022-12-06T00:09:34.520Z,74.80
2022-12-06T00:12:02.243Z,78.90
2022-12-06T00:14:30.037Z,88.90
2022-12-06T00:16:57.757Z,74.80
2022-12-06T00:19:25.846Z,77.30
2022-12-06T00:21:54.431Z,88.20
2022-12-06T00:24:23.316Z,89.00
2022-12-06T00:26:51.246Z,88.50
2022-12-06T00:29:23.895Z,78.80
2022-12-06T00:31:51.919Z,77.80
2022-12-06T00:34:19.851Z,74.30
2022-12-06T00:36:48.884Z,73.80
2022-12-06T00:39:18.103Z,73.00
2022-12-06T00:41:45.930Z,83.20
2022-12-06T00:44:13.853Z,90.10
2022-12-06T00:46:41.537Z,77.20
2022-12-06T00:49:09.799Z,83.70
2022-12-06T00:51:40.324Z,82.30
2022-12-06T00:54:08.752Z,80.40
2022-12-06T00:56:36.913Z,77.70
2022-12-06T00:59:05.526Z,75.70
2022-12-06T01:01:36.183Z,80.30
2022-12-06T01:04:06.606Z,75.70
2022-12-06T01:06:36.713Z,76.30
2022-12-06T01:09:09.784Z,80.70
2022-12-06T01:11:38.285Z,80.30
2022-12-06T01:14:06.540Z,80.50
2022-12-06T01:16:35.198Z,78.40
2022-12-06T01:19:05.464Z,78.10
2022-12-06T01:21:33.204Z,79.10
2022-12-06T01:24:03.838Z,81.50
2022-12-06T01:26:33.893Z,90.30
2022-12-06T01:29:02.504Z,79.30
2022-12-06T01:31:37.230Z,98.80
2022-12-06T01:34:09.908Z,96.30
2022-12-06T01:36:37.628Z,104.30
2022-12-06T01:39:08.267Z,98.60
2022-12-06T01:41:37.116Z,81.10
2022-12-06T01:44:05.230Z,85.80
2022-12-06T01:46:42.129Z,85.70
2022-12-06T01:49:18.305Z,88.50
2022-12-06T01:51:52.135Z,87.80
2022-12-06T01:54:20.899Z,97.90
2022-12-06T01:56:49.343Z,95.30
2022-12-06T01:59:17.221Z,83.40
2022-12-06T02:01:46.414Z,86.10
2022-12-06T02:04:15.456Z,98.10
2022-12-06T02:06:44.210Z,108.80
2022-12-06T02:09:12.733Z,88.00
2022-12-06T02:11:41.504Z,89.90
2022-12-06T02:14:13.200Z,90.40
2022-12-06T02:17:10.166Z,90.40
2022-12-06T02:20:16.249Z,97.20
2022-12-06T02:23:00.984Z,88.00
2022-12-06T02:25:55.886Z,88.20
2022-12-06T02:28:52.003Z,88.90
2022-12-06T02:31:25.233Z,92.60
2022-12-06T02:34:02.800Z,98.00
2022-12-06T02:36:42.612Z,92.90
2022-12-06T02:39:24.704Z,115.90
2022-12-06T02:50:35.488Z,100.50
2022-12-06T02:53:04.507Z,95.60
2022-12-06T02:55:32.868Z,110.10
2022-12-06T02:58:00.934Z,105.10
2022-12-06T03:00:29.331Z,92.00
2022-12-06T03:03:17.622Z,90.10
2022-12-06T03:06:02.928Z,90.30
2022-12-06T03:08:42.749Z,89.70
2022-12-06T03:11:10.983Z,98.80
2022-12-06T03:13:55.771Z,108.10
2022-12-06T03:16:30.247Z,110.90
2022-12-06T03:19:04.889Z,105.30
2022-12-06T03:21:57.692Z,96.90
2022-12-06T03:24:27.910Z,100.10
2022-12-06T03:26:57.168Z,89.90
2022-12-06T03:29:26.728Z,95.00
2022-12-06T03:31:56.276Z,87.60
2022-12-06T03:34:31.403Z,89.00
2022-12-06T03:36:59.911Z,88.70
2022-12-06T03:39:39.460Z,89.50
2022-12-06T03:42:07.745Z,106.90
2022-12-06T03:44:35.747Z,111.60
2022-12-06T03:47:16.029Z,100.10
2022-12-06T03:49:59.379Z,95.00
2022-12-06T03:52:28.966Z,90.50
2022-12-06T03:54:56.869Z,90.30
2022-12-06T03:57:24.690Z,98.90
2022-12-06T03:59:52.457Z,88.70
2022-12-06T04:02:20.105Z,84.90
2022-12-06T04:04:49.376Z,91.00
2022-12-06T04:07:21.200Z,93.50
2022-12-06T04:10:04.298Z,92.60
2022-12-06T04:12:52.372Z,91.40
2022-12-06T04:15:21.536Z,104.40
2022-12-06T04:18:08.520Z,98.20
2022-12-06T04:21:18.399Z,102.50
2022-12-06T04:23:49.400Z,88.70
2022-12-06T04:26:20.302Z,94.60
2022-12-06T04:29:07.391Z,93.20
2022-12-06T04:31:54.668Z,88.90
2022-12-06T04:34:41.337Z,94.70
2022-12-06T04:37:28.385Z,111.50
2022-12-06T04:39:56.115Z,183.80
2022-12-06T04:42:42.458Z,115.20
2022-12-06T04:45:10.734Z,98.00
2022-12-06T04:47:38.498Z,98.80
2022-12-06T04:50:07.115Z,107.60
2022-12-06T04:52:36.219Z,98.10
2022-12-06T04:55:05.290Z,100.40
2022-12-06T04:57:33.141Z,112.20
2022-12-06T05:00:01.226Z,111.80
2022-12-06T05:02:29.340Z,117.20
2022-12-06T05:04:57.421Z,100.00
2022-12-06T05:07:25.196Z,112.00
2022-12-06T05:09:52.902Z,98.30
2022-12-06T05:12:20.653Z,100.30
2022-12-06T05:14:48.348Z,100.10
2022-12-06T05:17:16.016Z,98.00
2022-12-06T05:19:43.682Z,99.40
2022-12-06T05:22:11.363Z,98.20
2022-12-06T05:24:39.098Z,93.90
2022-12-06T05:27:06.772Z,93.20
2022-12-06T05:29:34.459Z,91.50
2022-12-06T05:32:02.346Z,90.60
2022-12-06T05:34:30.150Z,91.70
2022-12-06T05:36:57.777Z,88.10
2022-12-06T05:39:25.657Z,86.70
2022-12-06T05:41:53.420Z,87.10
2022-12-06T05:44:21.119Z,90.20
2022-12-06T05:46:48.883Z,92.10
2022-12-06T05:49:16.698Z,91.20
2022-12-06T05:51:44.500Z,95.50
2022-12-06T05:54:12.446Z,95.00
2022-12-06T05:56:40.118Z,92.30
2022-12-06T05:59:07.953Z,88.90
2022-12-06T06:01:35.701Z,86.50
2022-12-06T06:04:03.633Z,93.40
2022-12-06T06:06:31.452Z,92.50
2022-12-06T06:08:59.193Z,88.70
2022-12-06T06:11:26.969Z,86.60
2022-12-06T06:13:54.679Z,88.20
2022-12-06T06:16:22.581Z,88.20
2022-12-06T06:18:50.458Z,89.10
2022-12-06T06:21:18.179Z,90.50
2022-12-06T06:23:45.872Z,92.40
2022-12-06T06:26:13.659Z,104.80
2022-12-06T06:28:41.430Z,136.60
2022-12-06T06:31:14.995Z,99.30
2022-12-06T06:33:50.898Z,95.80
2022-12-06T06:36:18.648Z,98.20
2022-12-06T06:38:46.335Z,94.40
2022-12-06T06:41:14.014Z,92.60
2022-12-06T06:43:41.761Z,92.40
2022-12-06T06:46:10.074Z,87.50
2022-12-06T06:48:39.702Z,87.70
2022-12-06T06:51:14.938Z,88.60
2022-12-06T06:53:42.789Z,91.10
2022-12-06T06:56:11.305Z,96.30
2022-12-06T06:58:39.122Z,95.70
2022-12-06T07:01:08.597Z,99.50
2022-12-06T07:03:36.437Z,94.00
2022-12-06T07:06:08.373Z,98.10
2022-12-06T07:08:37.213Z,93.70
2022-12-06T07:11:05.591Z,95.00
2022-12-06T07:13:33.746Z,101.20
2022-12-06T07:16:06.975Z,96.10
2022-12-06T07:18:36.943Z,96.40
2022-12-06T07:21:07.385Z,148.70
2022-12-06T07:23:36.239Z,104.60
2022-12-06T07:26:09.647Z,98.90
2022-12-06T07:28:39.033Z,121.30
2022-12-06T07:31:09.192Z,109.50
2022-12-06T07:33:37.188Z,97.40
2022-12-06T07:36:13.827Z,98.20
2022-12-06T07:38:43.391Z,109.00
2022-12-06T07:41:31.896Z,99.90
2022-12-06T07:44:20.320Z,97.10
2022-12-06T07:46:48.588Z,188.90
2022-12-06T07:49:17.773Z,101.40
2022-12-06T07:51:45.943Z,109.20
2022-12-06T07:54:14.860Z,94.00
2022-12-06T07:56:43.285Z,96.70
2022-12-06T07:59:11.664Z,96.50
2022-12-06T08:01:39.699Z,101.90
2022-12-06T08:04:07.915Z,110.40
2022-12-06T08:06:35.804Z,97.60
2022-12-06T08:09:03.702Z,95.80
2022-12-06T08:11:31.540Z,99.60
2022-12-06T08:13:59.347Z,100.20
2022-12-06T08:16:27.428Z,106.60
2022-12-06T08:18:55.733Z,104.10
2022-12-06T08:21:26.126Z,108.70
2022-12-06T08:23:54.896Z,111.70
2022-12-06T08:26:23.977Z,127.90
2022-12-06T08:28:51.878Z,127.40
2022-12-06T08:31:22.698Z,123.00
2022-12-06T08:33:50.677Z,129.20
2022-12-06T08:36:22.008Z,130.80
2022-12-06T08:38:51.736Z,133.50
2022-12-06T08:41:53.048Z,136.40
2022-12-06T08:44:21.839Z,117.70
2022-12-06T08:46:50.187Z,106.70
2022-12-06T08:49:18.026Z,100.30
2022-12-06T08:51:47.107Z,101.90
2022-12-06T08:54:18.288Z,99.90
2022-12-06T08:56:46.248Z,103.50
2022-12-06T08:59:14.621Z,98.90
2022-12-06T09:01:42.710Z,96.00
2022-12-06T09:04:11.444Z,92.20
2022-12-06T09:06:40.886Z,93.00
2022-12-06T09:09:10.021Z,96.30
2022-12-06T09:11:39.037Z,92.20
2022-12-06T09:14:09.361Z,92.50
2022-12-06T09:16:37.752Z,91.30
2022-12-06T09:19:05.464Z,92.20
2022-12-06T09:21:34.575Z,91.80
2022-12-06T09:24:04.727Z,91.20
2022-12-06T09:26:33.001Z,87.60
2022-12-06T09:29:00.762Z,92.40
2022-12-06T09:31:28.641Z,90.20
2022-12-06T09:33:56.413Z,85.40
2022-12-06T09:36:27.042Z,91.30
2022-12-06T09:39:05.418Z,92.00
2022-12-06T09:42:01.543Z,92.90
2022-12-06T09:44:55.355Z,95.00
2022-12-06T09:47:58.625Z,101.40
2022-12-06T09:50:42.246Z,105.00
2022-12-06T09:53:47.137Z,107.60
2022-12-06T09:56:25.644Z,114.90
2022-12-06T09:58:56.919Z,112.20
2022-12-06T10:01:46.382Z,114.10
2022-12-06T10:04:39.340Z,112.20
2022-12-06T10:07:27.534Z,107.30
2022-12-06T10:10:07.852Z,107.40
2022-12-06T10:12:45.076Z,107.40
2022-12-06T10:15:23.013Z,102.70
2022-12-06T10:17:56.763Z,100.10
2022-12-06T10:20:34.410Z,108.50
2022-12-06T10:23:04.974Z,110.50
2022-12-06T10:25:46.760Z,103.00
2022-12-06T10:28:20.142Z,99.40
2022-12-06T10:30:53.548Z,101.60
2022-12-06T10:33:35.683Z,99.00
2022-12-06T10:36:05.830Z,96.40
2022-12-06T10:38:59.472Z,92.80
2022-12-06T10:41:42.139Z,92.20
2022-12-06T10:44:24.525Z,88.00
2022-12-06T10:47:13.065Z,85.90
2022-12-06T10:50:04.850Z,84.40
2022-12-06T10:52:36.649Z,84.60
2022-12-06T10:55:10.804Z,85.20
2022-12-06T10:58:04.108Z,84.00
2022-12-06T11:00:38.470Z,82.70
2022-12-06T11:03:18.869Z,83.70
2022-12-06T11:05:51.727Z,81.60
2022-12-06T11:08:30.468Z,81.80
2022-12-06T11:10:59.678Z,84.60
2022-12-06T11:13:45.548Z,82.60
2022-12-06T11:16:19.481Z,80.30
2022-12-06T11:18:48.671Z,82.30
2022-12-06T11:21:37.567Z,80.60
2022-12-06T11:24:20.959Z,82.10
2022-12-06T11:26:48.719Z,82.80
2022-12-06T11:29:16.814Z,83.40
2022-12-06T11:31:50.789Z,87.70
2022-12-06T11:34:23.258Z,84.50
2022-12-06T11:36:58.250Z,84.00
2022-12-06T11:39:29.910Z,129.20
2022-12-06T11:42:00.972Z,103.60
2022-12-06T11:44:36.347Z,80.20
2022-12-06T11:47:05.588Z,81.10
2022-12-06T11:49:42.568Z,74.50
2022-12-06T11:52:34.043Z,79.30
2022-12-06T11:55:17.032Z,72.30
2022-12-06T11:57:49.721Z,68.40
2022-12-06T12:00:22.936Z,68.70
2022-12-06T12:02:53.433Z,75.20
2022-12-06T12:05:26.735Z,72.10
2022-12-06T12:07:58.351Z,68.10
2022-12-06T12:10:31.216Z,67.30
2022-12-06T12:13:30.910Z,71.30
2022-12-06T12:16:06.819Z,68.90
2022-12-06T12:18:37.345Z,69.60
2022-12-06T12:21:06.669Z,66.50
2022-12-06T12:23:43.371Z,68.00
2022-12-06T12:26:16.106Z,72.40
2022-12-06T12:28:45.950Z,78.70
2022-12-06T12:31:19.686Z,76.70
2022-12-06T12:33:47.818Z,75.20
2022-12-06T12:36:26.033Z,72.60
2022-12-06T12:38:56.825Z,74.50
2022-12-06T12:41:30.588Z,74.10
2022-12-06T12:47:00.685Z,72.60
2022-12-06T12:49:34.391Z,70.90
2022-12-06T12:52:23.119Z,71.70
2022-12-06T12:55:22.015Z,72.50
2022-12-06T12:57:55.085Z,82.80
2022-12-06T13:00:25.631Z,77.10
2022-12-06T13:03:00.730Z,77.70
2022-12-06T13:05:35.167Z,75.50
2022-12-06T13:08:20.189Z,79.20
2022-12-06T13:10:55.481Z,77.70
2022-12-06T13:13:41.365Z,79.90
2022-12-06T13:16:13.084Z,77.00
2022-12-06T13:18:56.132Z,82.60
2022-12-06T13:21:32.385Z,76.70
2022-12-06T13:24:22.802Z,78.50
2022-12-06T13:26:58.606Z,76.20
2022-12-06T13:29:39.819Z,77.60
2022-12-06T13:32:23.194Z,74.20
2022-12-06T13:34:55.212Z,74.30
2022-12-06T13:37:34.160Z,74.70
2022-12-06T13:40:04.521Z,75.50
2022-12-06T13:42:38.643Z,76.10
2022-12-06T13:45:45.934Z,76.00
2022-12-06T13:48:26.189Z,75.00
2022-12-06T13:51:01.582Z,73.50
2022-12-06T13:53:34.027Z,73.30
2022-12-06T13:56:28.831Z,74.00
2022-12-06T13:58:58.220Z,71.10
2022-12-06T14:01:49.330Z,77.00
2022-12-06T14:09:44.527Z,75.50
2022-12-06T14:12:20.502Z,73.40
2022-12-06T14:14:56.668Z,73.30
2022-12-06T14:17:59.752Z,75.80
2022-12-06T14:20:27.897Z,77.30
2022-12-06T14:22:56.303Z,80.00
2022-12-06T14:25:28.351Z,78.30
2022-12-06T14:28:13.109Z,80.20
2022-12-06T14:30:41.354Z,78.40
2022-12-06T14:33:21.860Z,75.20
2022-12-06T14:35:52.481Z,72.30
2022-12-06T14:38:31.336Z,70.30
2022-12-06T14:41:17.980Z,70.60
2022-12-06T14:43:49.217Z,70.50
2022-12-06T14:46:17.841Z,73.50
2022-12-06T14:49:07.933Z,73.90
2022-12-06T14:51:38.674Z,74.10
2022-12-06T14:54:29.115Z,73.00
2022-12-06T14:56:56.996Z,74.50
2022-12-06T15:00:03.073Z,67.50
2022-12-06T15:02:28.948Z,68.10
2022-12-06T15:04:58.879Z,68.40
2022-12-06T15:07:53.315Z,66.10
2022-12-06T15:10:25.681Z,65.50
2022-12-06T15:12:56.403Z,65.10
2022-12-06T15:15:42.585Z,71.70
2022-12-06T15:18:23.578Z,68.90
2022-12-06T15:20:53.604Z,72.40
2022-12-06T15:23:31.619Z,72.90
2022-12-06T15:25:59.466Z,73.10
2022-12-06T15:28:27.265Z,76.10
2022-12-06T15:30:55.074Z,74.20
2022-12-06T15:33:24.531Z,74.20
2022-12-06T15:35:52.354Z,73.50
2022-12-06T15:38:20.400Z,70.70
2022-12-06T15:40:50.409Z,73.20
2022-12-06T15:43:18.112Z,73.70
2022-12-06T15:45:45.928Z,74.50
2022-12-06T15:48:13.967Z,68.60
2022-12-06T15:50:41.727Z,68.70
2022-12-06T15:53:18.461Z,70.90
2022-12-06T15:55:46.536Z,71.60
2022-12-06T15:58:14.419Z,67.00
2022-12-06T16:00:43.084Z,66.40
2022-12-06T16:03:11.280Z,74.60
2022-12-06T16:05:39.374Z,73.40
2022-12-06T16:08:07.669Z,74.40
2022-12-06T16:11:09.701Z,74.90
2022-12-06T16:13:23.776Z,80.30
2022-12-06T16:15:52.766Z,81.10
2022-12-06T16:18:20.793Z,78.70
2022-12-06T16:20:48.981Z,79.80
2022-12-06T16:24:11.225Z,83.20
2022-12-06T16:26:28.369Z,94.50
2022-12-06T16:28:57.612Z,89.90
2022-12-06T16:31:26.113Z,110.30
2022-12-06T16:33:54.376Z,156.70
2022-12-06T16:36:29.528Z,127.90
2022-12-06T16:39:02.861Z,77.70
2022-12-06T16:41:35.974Z,67.40
2022-12-06T16:44:04.333Z,74.20
2022-12-06T16:46:37.238Z,68.70
2022-12-06T16:52:11.054Z,70.60
2022-12-06T16:54:42.063Z,66.40
2022-12-06T16:57:13.182Z,67.80
2022-12-06T16:59:43.168Z,74.60
2022-12-06T17:02:29.054Z,68.50
2022-12-06T17:05:06.657Z,66.00
2022-12-06T17:07:37.086Z,61.50
2022-12-06T17:10:07.879Z,68.10
2022-12-06T17:12:37.400Z,67.90
2022-12-06T17:15:07.493Z,66.10
2022-12-06T17:17:36.078Z,67.00
2022-12-06T17:20:08.262Z,67.90
2022-12-06T17:22:38.002Z,86.70
2022-12-06T17:25:06.958Z,85.70
2022-12-06T17:27:35.664Z,98.00
2022-12-06T17:30:07.080Z,96.20
2022-12-06T17:32:36.129Z,88.60
2022-12-06T17:35:05.005Z,79.70
2022-12-06T17:37:35.289Z,65.30
2022-12-06T17:40:04.682Z,66.60
2022-12-06T17:42:54.744Z,69.10
2022-12-06T17:45:24.916Z,89.50
2022-12-06T17:47:54.232Z,76.50
2022-12-06T17:50:22.871Z,76.70
2022-12-06T17:52:56.128Z,67.10
2022-12-06T17:55:25.077Z,63.10
2022-12-06T17:57:54.484Z,60.60
2022-12-06T18:00:23.669Z,60.10
2022-12-06T18:02:54.755Z,60.20
2022-12-06T18:05:23.294Z,61.60
2022-12-06T18:07:54.294Z,60.80
2022-12-06T18:10:22.887Z,64.30
2022-12-06T18:12:51.375Z,65.60
2022-12-06T18:15:38.065Z,61.20
2022-12-06T18:18:06.876Z,59.10
2022-12-06T18:20:35.242Z,56.80
2022-12-06T18:23:03.486Z,55.40
2022-12-06T18:25:33.101Z,55.80
2022-12-06T18:28:01.778Z,55.40
2022-12-06T18:30:32.813Z,54.90
2022-12-06T18:33:05.826Z,53.60
2022-12-06T18:35:36.421Z,53.80
2022-12-06T18:38:04.954Z,57.50
2022-12-06T18:40:33.870Z,58.20
2022-12-06T18:43:01.649Z,59.00
2022-12-06T18:45:29.513Z,55.40
2022-12-06T18:47:57.370Z,56.40
2022-12-06T18:50:25.270Z,55.20
2022-12-06T18:52:53.041Z,57.40
2022-12-06T18:55:20.676Z,59.50
2022-12-06T18:57:48.540Z,62.20
2022-12-06T19:00:16.909Z,61.40
2022-12-06T19:02:44.686Z,57.40
2022-12-06T19:05:13.209Z,58.90
2022-12-06T19:07:41.108Z,60.20
2022-12-06T19:10:09.131Z,50.60
2022-12-06T19:12:36.911Z,50.40
2022-12-06T19:15:05.169Z,49.60
2022-12-06T19:17:32.898Z,46.90
2022-12-06T19:20:00.773Z,51.20
2022-12-06T19:22:28.843Z,51.90
2022-12-06T19:24:57.080Z,65.50
2022-12-06T19:27:24.877Z,45.00
2022-12-06T19:29:52.715Z,40.50
2022-12-06T19:32:20.470Z,40.10
2022-12-06T19:34:48.140Z,38.00
2022-12-06T19:37:17.524Z,38.80
2022-12-06T19:39:45.895Z,38.00
2022-12-06T19:42:32.381Z,36.60
2022-12-06T19:45:00.138Z,36.30
2022-12-06T19:47:27.877Z,35.30
2022-12-06T19:49:57.056Z,35.10
2022-12-06T19:52:30.583Z,36.70
2022-12-06T19:54:58.671Z,37.20
2022-12-06T19:57:26.455Z,37.10
2022-12-06T19:59:55.824Z,38.70
2022-12-06T20:02:23.609Z,37.80
2022-12-06T20:04:51.705Z,34.50
2022-12-06T20:07:19.424Z,31.60
2022-12-06T20:09:47.081Z,30.10
2022-12-06T20:12:14.923Z,31.10
2022-12-06T20:14:48.040Z,29.90
2022-12-06T20:17:18.344Z,27.80
2022-12-06T20:19:46.922Z,31.10
2022-12-06T20:22:16.502Z,30.50
2022-12-06T20:24:44.966Z,32.70
2022-12-06T20:27:12.703Z,33.70
2022-12-06T20:29:40.578Z,34.60
2022-12-06T20:32:10.263Z,32.00
2022-12-06T20:34:38.111Z,30.70
2022-12-06T20:37:07.005Z,34.70
2022-12-06T20:39:35.947Z,36.20
2022-12-06T20:42:06.845Z,33.20
2022-12-06T20:44:35.616Z,24.10
2022-12-06T20:47:04.141Z,24.00
2022-12-06T20:49:32.338Z,26.80
2022-12-06T20:52:02.186Z,26.20
2022-12-06T20:54:30.386Z,32.50
2022-12-06T20:56:58.492Z,24.70
2022-12-06T20:59:26.812Z,28.90
2022-12-06T21:01:55.052Z,34.30
2022-12-06T21:04:23.332Z,34.60
2022-12-06T21:06:51.210Z,30.70
2022-12-06T21:09:19.093Z,31.20
2022-12-06T21:11:47.625Z,34.30
2022-12-06T21:14:16.491Z,26.10
2022-12-06T21:16:44.439Z,35.40
2022-12-06T21:19:15.725Z,36.20
2022-12-06T21:21:53.275Z,37.00
2022-12-06T21:24:22.407Z,30.80
2022-12-06T21:26:50.293Z,33.20
2022-12-06T21:29:21.631Z,32.50
2022-12-06T21:31:52.124Z,33.60
2022-12-06T21:34:19.912Z,33.50
2022-12-06T21:36:47.679Z,28.50
2022-12-06T21:39:15.354Z,25.80
2022-12-06T21:41:43.239Z,24.50
2022-12-06T21:44:11.024Z,23.50
2022-12-06T21:46:39.055Z,25.80
2022-12-06T21:49:07.024Z,23.90
2022-12-06T21:51:34.776Z,26.00
2022-12-06T21:54:03.127Z,25.10
2022-12-06T21:56:31.202Z,27.80
2022-12-06T21:59:01.932Z,29.60
2022-12-06T22:01:31.239Z,26.50
2022-12-06T22:04:02.196Z,26.00
2022-12-06T22:06:31.593Z,27.80
2022-12-06T22:09:02.067Z,29.00
2022-12-06T22:11:30.341Z,31.30
2022-12-06T22:13:59.663Z,30.10
2022-12-06T22:16:28.681Z,30.10
2022-12-06T22:18:57.659Z,27.30
2022-12-06T22:21:27.542Z,27.50
2022-12-06T22:23:58.127Z,31.60
2022-12-06T22:26:30.444Z,34.10
2022-12-06T22:28:59.169Z,28.80
2022-12-06T22:31:33.522Z,29.40
2022-12-06T22:34:02.292Z,29.70
2022-12-06T22:36:31.004Z,30.70
2022-12-06T22:39:00.976Z,31.90
2022-12-06T22:41:29.491Z,32.20
2022-12-06T22:44:00.725Z,30.90
2022-12-06T22:46:30.056Z,31.90
2022-12-06T22:48:59.276Z,33.40
2022-12-06T22:51:36.014Z,32.00
2022-12-06T22:54:12.609Z,31.50
2022-12-06T22:56:47.299Z,31.90
2022-12-06T22:59:17.189Z,31.40
2022-12-06T23:01:45.187Z,32.30
2022-12-06T23:04:13.121Z,31.40
2022-12-06T23:06:40.876Z,32.70
2022-12-06T23:09:08.691Z,32.40
2022-12-06T23:11:36.906Z,33.30
2022-12-06T23:14:04.825Z,33.00
2022-12-06T23:16:32.797Z,33.60
2022-12-06T23:19:01.887Z,33.80
2022-12-06T23:21:31.817Z,34.00
2022-12-06T23:24:02.068Z,34.60
2022-12-06T23:26:33.062Z,35.20
2022-12-06T23:29:01.157Z,35.90
2022-12-06T23:31:31.876Z,34.70
2022-12-06T23:34:08.489Z,35.10
2022-12-06T23:36:36.304Z,36.20
2022-12-06T23:39:05.198Z,34.80
2022-12-06T23:41:34.010Z,34.60
2022-12-06T23:44:02.102Z,34.80
2022-12-06T23:46:32.423Z,34.70
2022-12-06T23:49:00.961Z,35.20
2022-12-06T23:51:34.080Z,34.90
2022-12-06T23:54:03.954Z,35.30
2022-12-06T23:56:37.492Z,34.20
2022-12-06T23:59:07.863Z,35.90
